Makanda, IL (62958)

6:19 PM CDT on September 21, 2014 (GMT -0500)
Cedar Lake Boat Launch | Change Station
CLOSE
Current Station
Personal Weather Station
Location: Carbondale, IL
Elevation: 548 ft
Nearby Weather Stations

Elev 548 ft 37.67 °N, 89.27 °W | Updated 13 minutes ago

Clear
Clear
75.7 °F
Feels Like 78 °F
N
6.0
Wind Variable Wind from NW
Gusts 10.0 mph

Today
High -- | Low -- °F
--% Chance of Precip.
Yesterday
High -- | Low -- °F
Precip. -- in
6:43 AM 6:55 PM
Waning Crescent, 5% visible
Pressure 30.00 in
Visibility 10.0 miles
Clouds Clear
Heat Index 78 °F
Dew Point 51 °F
Humidity 42%
Rainfall 0.00 in
Snow Depth Not available.
UV 1 out of 12
Pollen 7.60 out of 12
Air Quality Not available.
Flu Activity Not available.
METAR KMDH 212252Z AUTO 34008KT 10SM CLR 24/09 A3001 RMK AO2 SLP159 T02440089

More Conditions Fewer Conditions

Pressure 30.00 in
Visibility 10.0 miles
Clouds Clear
Heat Index 78 °F
Dew Point 51 °F
Humidity 42%
Rainfall 0.00 in
Snow Depth Not available.
UV 1 out of 12
Pollen 7.60 out of 12
Air Quality Not available.
Flu Activity Not available.
METAR KMDH 212252Z AUTO 34008KT 10SM CLR 24/09 A3001 RMK AO2 SLP159 T02440089

More Conditions Fewer Conditions

10-Day Weather Forecast

Almanac

Astronomy

Sep. 21, 2014 Rise Set
Actual Time 6:43 AM CDT 6:55 PM CDT
Civil Twilight 6:17 AM CDT 7:21 PM CDT
Nautical Twilight 5:46 AM CDT 7:51 PM CDT
Astronomical Twilight 5:15 AM CDT 8:22 PM CDT
Moon 4:19 AM CDT 5:29 PM CDT
Length of Visible Light 13h 03m
Length of Day
12h 11m
Tomorrow will be 2m 23s shorter.
Waning Crescent, 5% of the Moon is Illuminated
Today
Waning Crescent
Sep 24
New
Oct 1
First Quarter
Oct 8
Full
Oct 15
Last Quarter

Today's Extremes

State Highs State Lows

Community

WunderPhotos

Upload Photos

1,755,292 photos uploaded!

WunderBlogs® & News

Nearby

Snow Depth

Station Depth Elevation
No new snow has been reported.

Earthquake Activity

City Distance Mag. Time & Date
No recent earthquake activity has been reported nearby.
Minimum magnitude displayed is 2.5.

Coastal Water Temperatures

Place Temperature
No Stations Reporting

Nearby Weather Stations